Time;durP1;ratioP1;P1;durP2;ratioP2;P2;SDS_P1;SDS_P2;PMS_P1;PMS_P2;Temp;Humidity;BMP_temperature;BMP_pressure;BME280_temperature;BME280_humidity;BME280_pressure;Samples;Min_cycle;Max_cycle;Signal;HPM_P1;HPM_P2
2024/04/24 00:02:10;;;;;;;5.50;1.13;;;;;;;9.38;54.21;101448.97;5378850;25;95305;-87
2024/04/24 00:04:35;;;;;;;8.30;1.50;;;;;;;9.39;54.28;101440.31;5401771;25;98771;-87
2024/04/24 00:07:01;;;;;;;4.10;1.17;;;;;;;9.40;54.40;101444.69;5370557;25;98940;-87
2024/04/24 00:09:26;;;;;;;5.40;2.28;;;;;;;9.40;54.44;101439.47;5390544;25;95377;-87
2024/04/24 00:11:52;;;;;;;10.60;2.45;;;;;;;9.41;54.71;101438.66;5387173;25;94775;-87
2024/04/24 00:14:17;;;;;;;8.05;1.60;;;;;;;9.44;54.58;101440.44;5377501;26;98479;-86
2024/04/24 00:16:42;;;;;;;5.13;1.75;;;;;;;9.46;54.56;101433.53;5402590;25;97586;-86
2024/04/24 00:19:08;;;;;;;6.50;2.03;;;;;;;9.47;54.55;101428.38;5375147;26;94886;-88
2024/04/24 00:21:33;;;;;;;5.47;1.40;;;;;;;9.46;54.51;101430.94;5399004;25;94780;-87
2024/04/24 00:23:59;;;;;;;9.27;2.03;;;;;;;9.44;54.65;101430.03;5400642;25;104316;-86
2024/04/24 00:26:24;;;;;;;5.95;2.05;;;;;;;9.44;55.08;101417.88;5366252;25;98626;-87
2024/04/24 00:28:49;;;;;;;6.95;2.13;;;;;;;9.49;54.80;101411.06;5407383;25;95272;-87
2024/04/24 00:31:15;;;;;;;6.43;2.38;;;;;;;9.53;54.62;101409.41;5362176;25;94963;-86
2024/04/24 00:33:40;;;;;;;5.63;1.65;;;;;;;9.57;54.99;101397.34;5400815;26;95799;-87
2024/04/24 00:36:06;;;;;;;5.60;1.30;;;;;;;9.59;54.56;101395.66;5386495;25;95528;-87
2024/04/24 00:38:31;;;;;;;7.15;1.40;;;;;;;9.61;54.83;101394.88;5403782;25;94797;-87
2024/04/24 00:40:56;;;;;;;4.53;2.03;;;;;;;9.63;54.45;101388.00;5401982;25;94982;-87
2024/04/24 00:43:22;;;;;;;6.05;2.47;;;;;;;9.64;54.47;101379.34;5404798;25;97468;-86
2024/04/24 00:45:47;;;;;;;6.47;1.98;;;;;;;9.66;54.90;101379.34;5370410;25;98756;-87
2024/04/24 00:48:13;;;;;;;4.65;1.92;;;;;;;9.66;54.45;101372.44;5371180;26;94861;-87
2024/04/24 00:50:39;;;;;;;5.05;2.17;;;;;;;9.68;54.77;101377.69;5353171;25;95249;-86
2024/04/24 00:53:06;;;;;;;4.05;1.27;;;;;;;9.66;54.36;101367.22;5409519;25;97727;-86
2024/04/24 00:55:32;;;;;;;9.30;2.33;;;;;;;9.65;54.68;101367.19;5371405;25;97729;-86
2024/04/24 00:57:57;;;;;;;8.57;1.73;;;;;;;9.61;54.55;101362.75;5373190;25;94856;-86
2024/04/24 01:00:24;;;;;;;6.80;2.35;;;;;;;9.58;54.50;101371.34;5405163;25;94936;-87
2024/04/24 01:02:49;;;;;;;4.72;1.38;;;;;;;9.54;54.75;101366.94;5409555;25;95775;-87
2024/04/24 01:05:15;;;;;;;5.35;1.40;;;;;;;9.51;54.72;101364.25;5400815;25;98715;-87
2024/04/24 01:07:41;;;;;;;5.53;1.50;;;;;;;9.49;54.64;101358.13;5361126;25;96536;-87
2024/04/24 01:10:17;;;;;;;7.50;1.90;;;;;;;9.47;54.70;101358.06;5401271;25;94979;-87
2024/04/24 01:12:47;;;;;;;6.63;1.80;;;;;;;9.48;54.94;101361.53;5373163;26;98657;-87
2024/04/24 01:15:13;;;;;;;10.07;1.80;;;;;;;9.48;54.62;101351.13;5394421;26;98674;-87
2024/04/24 01:17:42;;;;;;;7.22;1.73;;;;;;;9.44;54.24;101355.38;5401484;25;94836;-86
2024/04/24 01:20:14;;;;;;;8.48;1.90;;;;;;;9.40;54.54;101352.69;5400103;25;94973;-87
2024/04/24 01:22:50;;;;;;;8.35;2.22;;;;;;;9.37;54.54;101345.66;5375896;26;98745;-87
2024/04/24 01:25:37;;;;;;;7.97;1.67;;;;;;;9.36;54.50;101348.22;5402978;25;95556;-87
2024/04/24 01:28:03;;;;;;;7.90;2.58;;;;;;;9.29;54.45;101342.88;5365167;26;94905;-87
2024/04/24 01:30:29;;;;;;;6.03;2.63;;;;;;;9.27;54.49;101343.66;5362735;25;95059;-87
2024/04/24 01:32:54;;;;;;;4.85;1.38;;;;;;;9.27;54.57;101343.66;5412215;25;95732;-86
2024/04/24 01:35:20;;;;;;;7.47;2.70;;;;;;;9.26;54.33;101342.78;5401162;26;95928;-87
2024/04/24 01:37:45;;;;;;;4.93;1.17;;;;;;;9.26;54.52;101360.13;5369527;25;94837;-87
2024/04/24 01:40:11;;;;;;;6.18;1.33;;;;;;;9.20;54.57;101353.03;5353518;26;94867;-87
2024/04/24 01:42:36;;;;;;;5.97;1.42;;;;;;;9.18;54.33;101335.59;5352367;25;97802;-88
2024/04/24 01:45:02;;;;;;;4.57;1.77;;;;;;;9.13;54.56;101328.56;5391321;25;99008;-86
2024/04/24 01:47:27;;;;;;;8.48;2.50;;;;;;;9.05;54.11;101321.41;5397828;25;94871;-87
2024/04/24 01:49:53;;;;;;;3.63;1.65;;;;;;;8.95;54.24;101321.16;5394334;25;94913;-87
2024/04/24 01:52:18;;;;;;;7.13;1.00;;;;;;;8.88;54.39;101314.03;5369044;25;97967;-86
2024/04/24 01:54:43;;;;;;;5.53;1.15;;;;;;;8.82;54.47;101302.56;5355196;26;97833;-87
2024/04/24 01:57:09;;;;;;;4.15;1.75;;;;;;;8.78;54.48;101312.00;5372961;25;94838;-87
2024/04/24 01:59:34;;;;;;;5.72;1.08;;;;;;;8.76;54.59;101319.75;5399720;25;96342;-87
2024/04/24 02:02:00;;;;;;;5.45;1.00;;;;;;;8.74;54.72;101305.84;5403314;25;98423;-87
2024/04/24 02:04:25;;;;;;;4.93;1.92;;;;;;;8.74;54.94;101308.44;5408942;25;98544;-86
2024/04/24 02:06:50;;;;;;;4.70;1.77;;;;;;;8.73;54.88;101296.28;5379565;25;94866;-87
2024/04/24 02:09:16;;;;;;;4.80;1.67;;;;;;;8.73;54.61;101295.41;5403993;26;94964;-87
2024/04/24 02:11:41;;;;;;;4.57;1.75;;;;;;;8.73;55.05;101296.28;5368087;26;98667;-87
2024/04/24 02:14:06;;;;;;;7.85;1.45;;;;;;;8.72;54.81;101302.31;5388303;25;98525;-87
2024/04/24 02:16:32;;;;;;;4.40;1.63;;;;;;;8.71;55.11;101305.75;5401741;26;94976;-88
2024/04/24 02:18:59;;;;;;;4.05;0.80;;;;;;;8.66;55.13;101304.78;5402242;25;95284;-87
2024/04/24 02:21:25;;;;;;;4.30;2.90;;;;;;;8.65;54.83;101308.19;5403155;25;98828;-88
2024/04/24 02:23:50;;;;;;;6.05;1.20;;;;;;;8.62;54.95;101302.91;5378862;25;95548;-87
2024/04/24 02:26:15;;;;;;;7.30;2.15;;;;;;;8.58;55.17;101295.88;5346176;26;94839;-87
2024/04/24 02:28:41;;;;;;;7.03;1.75;;;;;;;8.56;54.99;101306.22;5389399;25;94903;-87
2024/04/24 02:31:06;;;;;;;6.05;1.50;;;;;;;8.54;55.26;101297.50;5367616;25;97737;-87
2024/04/24 02:33:32;;;;;;;5.68;1.45;;;;;;;8.54;55.30;101292.28;5401673;25;95439;-87
2024/04/24 02:35:57;;;;;;;4.40;1.70;;;;;;;8.56;55.25;101297.53;5384151;25;94891;-87
2024/04/24 02:38:22;;;;;;;6.55;2.38;;;;;;;8.57;55.20;101291.50;5359523;26;95022;-87
2024/04/24 02:40:48;;;;;;;2.95;0.98;;;;;;;8.57;55.25;101288.88;5366392;25;98627;-87
2024/04/24 02:43:13;;;;;;;3.80;1.60;;;;;;;8.58;55.17;101290.66;5361443;26;98358;-87
2024/04/24 02:45:39;;;;;;;5.50;1.85;;;;;;;8.56;55.02;101284.53;5362879;26;94881;-87
2024/04/24 02:48:06;;;;;;;5.07;1.92;;;;;;;8.55;55.60;101288.84;5365442;26;94882;-87
2024/04/24 02:50:31;;;;;;;6.07;1.30;;;;;;;8.56;55.13;101275.00;5396853;25;95596;-87
2024/04/24 02:52:57;;;;;;;4.07;1.23;;;;;;;8.54;55.42;101268.91;5373496;26;98419;-87
2024/04/24 02:55:22;;;;;;;4.20;1.45;;;;;;;8.52;55.04;101269.69;5403593;25;94892;-87
2024/04/24 02:57:48;;;;;;;8.38;1.23;;;;;;;8.49;54.92;101257.47;5389937;25;94949;-87
2024/04/24 03:00:13;;;;;;;8.48;1.52;;;;;;;8.47;54.79;101263.50;5374443;25;98562;-87
2024/04/24 03:02:39;;;;;;;7.20;1.25;;;;;;;8.43;55.34;101264.22;5393878;25;98797;-87
2024/04/24 03:05:04;;;;;;;8.25;1.70;;;;;;;8.40;55.14;101259.81;5389738;25;94806;-87
2024/04/24 03:07:30;;;;;;;5.45;2.55;;;;;;;8.37;55.28;101267.50;5395769;25;94901;-88
2024/04/24 03:09:55;;;;;;;6.53;2.30;;;;;;;8.35;55.54;101244.06;5402804;25;95816;-88
2024/04/24 03:12:23;;;;;;;4.88;1.38;;;;;;;8.34;55.72;101249.22;5357398;26;97341;-87
2024/04/24 03:14:48;;;;;;;6.75;1.52;;;;;;;8.33;55.45;101240.53;5394741;25;95451;-88
2024/04/24 03:17:14;;;;;;;7.68;2.10;;;;;;;8.35;55.53;101235.41;5397423;25;95012;-87
2024/04/24 03:19:39;;;;;;;5.95;1.88;;;;;;;8.35;55.71;101225.00;5409828;25;98851;-87
2024/04/24 03:22:05;;;;;;;5.82;1.85;;;;;;;8.37;55.82;101218.97;5403250;25;97529;-87
2024/04/24 03:24:32;;;;;;;6.47;2.38;;;;;;;8.38;55.68;101214.69;5401031;25;94794;-86
2024/04/24 03:26:57;;;;;;;7.35;1.35;;;;;;;8.37;55.71;101212.91;5403588;25;94719;-87
2024/04/24 03:29:23;;;;;;;4.65;1.80;;;;;;;8.39;55.44;101212.13;5402843;25;98708;-87
2024/04/24 03:31:49;;;;;;;6.65;1.92;;;;;;;8.39;55.82;101206.94;5364328;26;97421;-86
2024/04/24 03:34:14;;;;;;;10.23;1.23;;;;;;;8.42;55.56;101210.47;5384478;25;94786;-87
2024/04/24 03:36:39;;;;;;;4.30;1.52;;;;;;;8.41;55.57;101201.75;5376076;25;95135;-87
2024/04/24 03:39:05;;;;;;;4.85;1.77;;;;;;;8.38;55.13;101201.69;5368849;25;98370;-87
2024/04/24 03:41:30;;;;;;;7.85;2.22;;;;;;;8.39;55.45;101200.84;5377721;25;95850;-87
2024/04/24 03:43:56;;;;;;;5.93;1.70;;;;;;;8.36;55.59;101191.25;5394270;25;94961;-87
2024/04/24 03:46:21;;;;;;;7.63;1.02;;;;;;;8.33;55.56;101198.09;5374776;26;94834;-87
2024/04/24 03:48:47;;;;;;;6.35;1.50;;;;;;;8.29;55.32;101189.31;5389127;25;96293;-87
2024/04/24 03:51:12;;;;;;;7.57;1.20;;;;;;;8.28;55.33;101184.94;5367970;25;98438;-87
2024/04/24 03:53:38;;;;;;;8.63;2.30;;;;;;;8.25;55.50;101184.00;5400295;25;94948;-87
2024/04/24 03:56:03;;;;;;;5.75;1.33;;;;;;;8.22;55.36;101181.28;5357803;26;94907;-87
2024/04/24 03:58:29;;;;;;;8.90;1.65;;;;;;;8.19;55.42;101184.72;5360675;25;98490;-87
2024/04/24 04:00:54;;;;;;;7.95;1.38;;;;;;;8.17;55.38;101181.19;5382130;25;95695;-87
2024/04/24 04:03:19;;;;;;;6.20;1.42;;;;;;;8.14;55.54;101178.50;5349649;25;94897;-85
2024/04/24 04:05:45;;;;;;;7.40;1.55;;;;;;;8.11;55.16;101174.09;5362163;26;95162;-87
2024/04/24 04:08:10;;;;;;;7.50;1.27;;;;;;;8.07;55.56;101173.97;5371533;25;98173;-87
2024/04/24 04:10:36;;;;;;;11.75;2.65;;;;;;;8.05;55.28;101167.84;5370579;26;101738;-87
2024/04/24 04:13:02;;;;;;;6.72;1.67;;;;;;;8.00;55.31;101168.63;5397835;25;94931;-87
2024/04/24 04:15:27;;;;;;;6.43;1.90;;;;;;;7.96;55.31;101174.53;5389065;25;94839;-88
2024/04/24 04:17:53;;;;;;;4.65;1.60;;;;;;;7.91;55.51;101165.72;5394697;25;95833;-88
2024/04/24 04:20:18;;;;;;;4.53;1.30;;;;;;;7.87;55.50;101169.09;5346717;26;98607;-87
2024/04/24 04:22:43;;;;;;;8.65;1.67;;;;;;;7.86;55.52;101159.56;5364502;25;95408;-88
2024/04/24 04:25:10;;;;;;;5.30;2.10;;;;;;;7.85;55.60;101156.91;5400392;25;94978;-87
2024/04/24 04:27:35;;;;;;;7.38;1.10;;;;;;;7.86;55.86;101150.84;5383095;25;98521;-87
2024/04/24 04:30:01;;;;;;;4.93;0.95;;;;;;;7.86;55.50;101154.34;5402264;25;95806;-87
2024/04/24 04:32:26;;;;;;;6.68;1.30;;;;;;;7.87;55.55;101152.63;5400731;25;95583;-87
2024/04/24 04:34:52;;;;;;;5.13;1.00;;;;;;;7.88;55.99;101149.19;5383954;25;94898;-87
2024/04/24 04:37:17;;;;;;;6.40;2.22;;;;;;;7.92;55.77;101153.66;5400583;25;94938;-87
2024/04/24 04:39:43;;;;;;;4.65;1.65;;;;;;;7.96;55.88;101158.09;5399602;25;95876;-87
2024/04/24 04:42:08;;;;;;;10.70;1.75;;;;;;;8.00;55.98;101153.03;5368545;25;95221;-87
2024/04/24 04:44:34;;;;;;;7.75;1.55;;;;;;;8.05;56.18;101167.84;5386300;25;94894;-87
2024/04/24 04:46:59;;;;;;;7.30;1.20;;;;;;;8.09;56.16;101160.19;5402253;25;98281;-87
2024/04/24 04:49:25;;;;;;;9.18;1.23;;;;;;;8.14;56.38;101166.38;5355518;26;98577;-87
2024/04/24 04:51:50;;;;;;;7.45;1.08;;;;;;;8.17;56.49;101158.69;5355242;26;95239;-87
2024/04/24 04:54:16;;;;;;;7.40;1.77;;;;;;;8.21;56.25;101151.84;5350408;26;94837;-87
2024/04/24 04:56:41;;;;;;;7.32;2.10;;;;;;;8.26;56.21;101151.97;5409988;25;98656;-87
2024/04/24 04:59:07;;;;;;;7.00;1.92;;;;;;;8.28;56.13;101145.09;5369370;25;97355;-87
2024/04/24 05:01:32;;;;;;;6.40;1.88;;;;;;;8.30;56.29;101148.63;5395785;25;94812;-87
2024/04/24 05:03:58;;;;;;;4.78;1.83;;;;;;;8.33;56.39;101146.97;5379927;25;94872;-87
2024/04/24 05:06:23;;;;;;;6.05;1.45;;;;;;;8.37;56.12;101142.75;5388661;25;97581;-90
2024/04/24 05:08:49;;;;;;;6.30;1.33;;;;;;;8.39;56.29;101144.56;5399775;25;95793;-89
2024/04/24 05:11:14;;;;;;;6.97;1.17;;;;;;;8.39;56.10;101135.84;5409301;25;94812;-85
2024/04/24 05:13:39;;;;;;;8.02;1.95;;;;;;;8.39;55.78;101138.44;5418773;25;94994;-87
2024/04/24 05:16:11;;;;;;;9.10;1.90;;;;;;;8.39;56.15;101133.25;5411036;25;95789;-86
2024/04/24 05:18:36;;;;;;;7.63;1.70;;;;;;;8.40;55.92;101135.03;5364475;26;97849;-85
2024/04/24 05:21:02;;;;;;;5.32;1.08;;;;;;;8.43;55.97;101131.66;5409323;25;94908;-88
2024/04/24 05:23:28;;;;;;;6.60;1.05;;;;;;;8.45;55.96;101127.38;5376025;26;94915;-87
2024/04/24 05:25:55;;;;;;;9.60;1.55;;;;;;;8.47;56.20;101133.50;5405335;26;95727;-86
2024/04/24 05:31:05;;;;;;;6.75;2.40;;;;;;;8.49;56.20;101130.09;5381590;26;94703;-86
2024/04/24 05:33:30;;;;;;;7.28;2.35;;;;;;;8.50;55.99;101124.06;5423550;25;95042;-87
2024/04/24 05:35:56;;;;;;;6.10;1.20;;;;;;;8.51;56.14;101122.34;5376296;26;96031;-87
2024/04/24 05:38:21;;;;;;;9.25;1.88;;;;;;;8.50;56.05;101121.47;5368880;26;97964;-86
2024/04/24 05:40:47;;;;;;;7.55;1.42;;;;;;;8.51;56.23;101118.00;5408924;25;94912;-86
2024/04/24 05:43:12;;;;;;;9.27;2.50;;;;;;;8.53;56.50;101116.31;5367364;26;94951;-85
2024/04/24 05:45:40;;;;;;;8.55;3.00;;;;;;;8.58;56.69;101113.84;5395289;26;95722;-87
2024/04/24 05:48:06;;;;;;;8.23;2.60;;;;;;;8.68;56.74;101112.34;5407120;26;98087;-87
2024/04/24 05:50:31;;;;;;;8.50;1.45;;;;;;;8.77;56.84;101110.00;5405451;26;94964;-87
2024/04/24 05:52:57;;;;;;;7.55;2.30;;;;;;;8.84;56.61;101109.28;5380159;26;94812;-85
2024/04/24 05:55:25;;;;;;;9.10;1.50;;;;;;;8.90;56.36;101112.03;5388893;25;97592;-86
2024/04/24 05:57:51;;;;;;;6.53;1.98;;;;;;;8.94;56.78;101115.56;5419681;25;96058;-85
2024/04/24 06:00:16;;;;;;;10.35;2.05;;;;;;;9.02;56.66;101103.63;5396973;25;94980;-85
2024/04/24 06:02:42;;;;;;;9.98;2.60;;;;;;;9.11;56.75;101100.38;5403562;26;94888;-86
2024/04/24 06:05:07;;;;;;;9.00;1.95;;;;;;;9.18;56.36;101101.38;5396411;26;98332;-86
2024/04/24 06:07:33;;;;;;;7.53;2.47;;;;;;;9.23;56.50;101104.94;5404708;25;95776;-87
2024/04/24 06:09:58;;;;;;;16.70;2.92;;;;;;;9.29;56.19;101098.16;5363867;26;94778;-86
2024/04/24 06:12:23;;;;;;;8.32;1.60;;;;;;;9.36;56.18;101100.88;5407275;26;94940;-86
2024/04/24 06:14:49;;;;;;;10.05;2.25;;;;;;;9.44;56.64;101095.00;5401165;26;97904;-86
2024/04/24 06:17:14;;;;;;;10.25;1.65;;;;;;;9.57;56.50;101090.91;5376314;26;98366;-85
2024/04/24 06:19:40;;;;;;;8.60;2.15;;;;;;;9.68;56.36;101085.97;5407462;25;94795;-86
2024/04/24 06:22:06;;;;;;;8.63;1.42;;;;;;;9.77;56.53;101087.84;5397398;25;94856;-86
2024/04/24 06:24:32;;;;;;;12.30;2.35;;;;;;;9.84;56.14;101082.81;5368129;26;97441;-85
2024/04/24 06:26:57;;;;;;;10.23;2.35;;;;;;;9.93;56.02;101079.50;5378178;26;98729;-86
2024/04/24 06:29:22;;;;;;;9.27;1.90;;;;;;;10.00;56.08;101078.75;5396159;25;95049;-84
2024/04/24 06:31:48;;;;;;;13.75;1.75;;;;;;;10.10;56.07;101079.78;5366074;26;95030;-86
2024/04/24 06:34:13;;;;;;;10.55;2.35;;;;;;;10.20;56.57;101078.25;5403701;25;98627;-86
2024/04/24 06:36:39;;;;;;;14.85;2.05;;;;;;;10.39;56.65;101069.03;5413394;25;96063;-86
2024/04/24 06:39:04;;;;;;;10.23;1.55;;;;;;;10.59;56.79;101074.59;5390840;26;94916;-86
2024/04/24 06:41:30;;;;;;;7.88;1.30;;;;;;;10.79;56.64;101065.34;5368428;26;95040;-86
2024/04/24 06:43:55;;;;;;;12.95;2.45;;;;;;;10.99;56.43;101065.63;5357362;26;98345;-86
2024/04/24 06:46:22;;;;;;;11.75;1.88;;;;;;;11.18;56.21;101068.50;5368567;26;98059;-86
2024/04/24 06:48:48;;;;;;;6.78;1.50;;;;;;;11.32;55.18;101056.50;5397686;25;94809;-85
2024/04/24 06:51:14;;;;;;;8.55;2.28;;;;;;;11.41;54.95;101051.41;5375033;26;95119;-86
2024/04/24 06:53:39;;;;;;;7.05;2.15;;;;;;;11.54;55.38;101055.03;5407399;25;97707;-85
2024/04/24 06:56:05;;;;;;;6.88;1.33;;;;;;;11.74;55.73;101057.00;5376613;26;97658;-85
2024/04/24 06:58:35;;;;;;;8.18;1.63;;;;;;;11.94;54.85;101054.63;5375238;26;94804;-86
2024/04/24 07:01:04;;;;;;;7.43;1.75;;;;;;;12.03;53.70;101054.72;5368067;26;94957;-86
2024/04/24 07:03:30;;;;;;;11.18;2.30;;;;;;;12.03;53.12;101051.22;5401543;25;97826;-85
2024/04/24 07:05:56;;;;;;;6.22;1.50;;;;;;;12.03;53.38;101056.47;5375400;26;95860;-86
2024/04/24 07:08:23;;;;;;;6.80;1.40;;;;;;;12.07;53.74;101055.66;5409135;25;94724;-86
2024/04/24 07:10:48;;;;;;;13.07;2.25;;;;;;;12.18;54.09;101047.03;5408254;25;94898;-86
2024/04/24 07:13:14;;;;;;;7.57;2.15;;;;;;;12.26;53.26;101039.25;5404214;26;95932;-86
2024/04/24 07:15:40;;;;;;;9.27;2.38;;;;;;;12.27;52.58;101040.13;5368650;26;98297;-85
2024/04/24 07:18:06;;;;;;;8.60;2.00;;;;;;;12.19;51.85;101043.56;5394843;26;94911;-86
2024/04/24 07:20:31;;;;;;;8.73;2.22;;;;;;;12.10;51.94;101034.75;5388348;26;94979;-85
2024/04/24 07:22:57;;;;;;;10.27;1.38;;;;;;;12.03;52.04;101031.19;5405086;26;95870;-86
2024/04/24 07:25:23;;;;;;;15.70;1.90;;;;;;;12.01;52.19;101038.13;5407831;26;95788;-87
2024/04/24 07:27:48;;;;;;;7.95;2.90;;;;;;;12.04;52.06;101037.31;5375306;26;94936;-87
2024/04/24 07:30:15;;;;;;;9.85;2.15;;;;;;;12.03;52.35;101043.38;5410657;25;94913;-86
2024/04/24 07:32:40;;;;;;;6.90;1.60;;;;;;;12.03;52.65;101041.63;5404725;26;97782;-85
2024/04/24 07:35:06;;;;;;;12.10;2.15;;;;;;;12.03;52.09;101046.88;5406036;26;97333;-86
2024/04/24 07:37:32;;;;;;;9.25;1.83;;;;;;;12.00;52.13;101041.63;5377266;26;94840;-86
2024/04/24 07:39:58;;;;;;;8.43;2.70;;;;;;;11.94;51.92;101054.63;5378875;26;94924;-86
2024/04/24 07:42:23;;;;;;;8.65;2.50;;;;;;;11.89;52.36;101056.28;5370539;26;98648;-86
2024/04/24 07:44:49;;;;;;;11.63;2.38;;;;;;;11.85;52.12;101057.97;5376011;26;97663;-86
2024/04/24 07:47:14;;;;;;;7.72;1.20;;;;;;;11.78;51.79;101061.38;5417239;25;94714;-84
2024/04/24 07:49:40;;;;;;;7.57;1.95;;;;;;;11.68;51.87;101057.81;5403284;26;94854;-86
2024/04/24 07:52:05;;;;;;;7.25;1.20;;;;;;;11.58;51.78;101059.41;5390036;25;98784;-86
2024/04/24 07:54:31;;;;;;;6.40;1.05;;;;;;;11.49;52.00;101056.72;5385569;25;97739;-86
2024/04/24 07:56:56;;;;;;;8.73;1.95;;;;;;;11.46;52.76;101063.63;5410520;25;94800;-87
2024/04/24 07:59:22;;;;;;;6.15;1.92;;;;;;;11.50;53.06;101057.59;5377557;26;95168;-86
2024/04/24 08:01:47;;;;;;;6.03;1.20;;;;;;;11.59;53.78;101055.09;5377246;25;97754;-87
2024/04/24 08:04:13;;;;;;;4.50;1.42;;;;;;;11.70;53.93;101050.00;5406966;25;95589;-86
2024/04/24 08:06:39;;;;;;;5.75;1.35;;;;;;;11.89;54.52;101044.09;5397319;25;94834;-86
2024/04/24 08:09:05;;;;;;;6.68;1.90;;;;;;;12.14;54.74;101039.16;5369815;26;94909;-87
2024/04/24 08:11:31;;;;;;;4.50;1.13;;;;;;;12.36;54.25;101048.94;5381475;25;98432;-87
2024/04/24 08:13:57;;;;;;;5.65;1.33;;;;;;;12.51;53.29;101049.91;5395375;26;95502;-88
2024/04/24 08:16:22;;;;;;;6.72;1.65;;;;;;;12.63;53.09;101039.53;5378230;26;94809;-87
2024/04/24 08:18:49;;;;;;;6.65;1.85;;;;;;;12.72;53.01;101044.84;5378580;26;94966;-87
2024/04/24 08:21:16;;;;;;;7.18;1.15;;;;;;;12.79;52.47;101039.66;5412360;25;98061;-87
2024/04/24 08:23:41;;;;;;;5.57;1.60;;;;;;;12.84;52.26;101044.06;5411561;25;98501;-87
2024/04/24 08:26:07;;;;;;;7.57;1.45;;;;;;;12.88;52.11;101037.09;5361955;26;94813;-87
2024/04/24 08:28:33;;;;;;;10.23;1.55;;;;;;;12.90;52.14;101043.22;5410644;25;94802;-88
2024/04/24 08:31:02;;;;;;;7.13;2.30;;;;;;;13.01;52.64;101035.41;5439205;25;95786;-87
2024/04/24 08:33:32;;;;;;;7.75;1.67;;;;;;;13.41;54.89;101026.03;5405363;26;98799;-86
2024/04/24 08:36:05;;;;;;;6.80;1.88;;;;;;;14.01;54.35;101023.56;5377729;26;94871;-86
2024/04/24 08:38:31;;;;;;;9.15;1.88;;;;;;;14.52;53.49;101025.34;5378115;26;94949;-86
2024/04/24 08:41:08;;;;;;;8.98;1.45;;;;;;;14.71;52.20;101020.97;5408153;26;95767;-87
2024/04/24 08:43:41;;;;;;;6.72;2.03;;;;;;;14.89;52.57;101010.41;5375966;26;98719;-87
2024/04/24 08:46:09;;;;;;;6.15;1.90;;;;;;;15.20;52.04;101003.31;5395709;26;94830;-87
2024/04/24 08:48:36;;;;;;;6.45;2.17;;;;;;;15.37;50.62;101007.63;5356845;25;95121;-88
2024/04/24 08:51:02;;;;;;;8.15;1.90;;;;;;;15.30;49.44;101009.41;5407694;25;95945;-88
2024/04/24 08:53:31;;;;;;;8.10;1.67;;;;;;;15.20;49.15;101003.31;5377417;26;95789;-87
2024/04/24 08:55:59;;;;;;;5.68;1.65;;;;;;;15.22;49.82;101016.44;5391545;25;94713;-87
2024/04/24 08:58:28;;;;;;;6.75;1.98;;;;;;;15.36;50.00;101012.00;5429770;25;94852;-87
2024/04/24 09:00:57;;;;;;;7.28;1.35;;;;;;;15.58;49.36;101002.25;5402128;26;97526;-87
2024/04/24 09:03:35;;;;;;;9.25;1.95;;;;;;;15.68;47.99;101002.19;5408272;26;98020;-88
2024/04/24 09:06:04;;;;;;;8.65;1.63;;;;;;;15.60;46.95;100997.84;5409231;26;95323;-88
2024/04/24 09:08:34;;;;;;;8.80;1.52;;;;;;;15.44;46.75;100998.84;5387330;26;94969;-88
2024/04/24 09:11:00;;;;;;;6.07;1.58;;;;;;;15.29;46.55;100999.75;5372191;26;98727;-88
2024/04/24 09:13:27;;;;;;;8.70;1.50;;;;;;;15.13;46.23;100995.44;5420811;25;97925;-88
2024/04/24 09:15:54;;;;;;;7.53;1.25;;;;;;;14.97;46.63;101000.78;5391209;26;94790;-89
2024/04/24 09:18:19;;;;;;;4.28;1.13;;;;;;;14.85;46.55;100991.16;5376844;25;95049;-88
2024/04/24 09:20:47;;;;;;;8.02;1.90;;;;;;;14.75;46.95;101002.56;5404476;25;95570;-90
2024/04/24 09:23:17;;;;;;;5.10;1.52;;;;;;;14.63;46.79;100997.34;5400292;25;98618;-89
2024/04/24 09:25:43;;;;;;;4.53;1.73;;;;;;;14.56;47.51;101000.81;5400742;26;94853;-89
2024/04/24 09:28:08;;;;;;;7.07;1.27;;;;;;;14.63;48.19;100990.34;5368104;26;95070;-89
2024/04/24 09:30:33;;;;;;;7.53;1.65;;;;;;;14.77;48.24;100974.56;5371991;26;98446;-90
2024/04/24 09:32:59;;;;;;;4.28;1.30;;;;;;;14.96;48.11;100983.25;5394837;25;98432;-90
2024/04/24 09:35:24;;;;;;;4.75;1.35;;;;;;;15.14;47.80;100977.06;5394980;25;94783;-90
2024/04/24 09:37:53;;;;;;;6.75;1.13;;;;;;;15.28;46.84;100986.66;5370694;26;95004;-90
2024/04/24 09:40:19;;;;;;;3.47;1.42;;;;;;;15.37;46.25;100989.22;5383493;26;98986;-88
2024/04/24 09:42:46;;;;;;;5.70;1.70;;;;;;;15.32;45.47;100991.88;5369920;25;97427;-89
2024/04/24 09:45:12;;;;;;;3.88;1.60;;;;;;;15.26;45.41;100991.00;5363284;26;94870;-90
2024/04/24 09:47:44;;;;;;;3.83;1.50;;;;;;;15.20;45.55;100978.78;5357742;25;95014;-88
2024/04/24 09:50:11;;;;;;;3.92;1.02;;;;;;;15.31;46.57;100982.25;5381113;26;97316;-91
2024/04/24 09:52:36;;;;;;;3.25;1.55;;;;;;;15.50;45.65;100976.88;5389624;25;98129;-90
2024/04/24 09:55:02;;;;;;;6.97;1.77;;;;;;;15.54;44.66;100976.88;5396291;25;94779;-89
2024/04/24 09:57:33;;;;;;;4.05;1.20;;;;;;;15.52;45.34;100969.88;5359770;26;95058;-90
2024/04/24 10:00:00;;;;;;;5.00;1.70;;;;;;;15.47;44.65;100977.78;5381540;25;95531;-89
2024/04/24 10:02:35;;;;;;;4.25;1.75;;;;;;;15.28;43.96;100992.78;5396285;25;95905;-89
2024/04/24 10:05:18;;;;;;;8.60;1.35;;;;;;;15.01;44.00;100989.38;5400824;25;94925;-88
2024/04/24 10:07:49;;;;;;;4.47;1.58;;;;;;;14.78;44.25;100996.44;5392572;25;94885;-87
2024/04/24 10:10:17;;;;;;;7.30;1.98;;;;;;;14.53;44.14;100998.19;5355484;26;98474;-87
2024/04/24 10:12:47;;;;;;;4.85;1.25;;;;;;;14.33;45.00;100987.72;5391244;25;98504;-87
2024/04/24 10:15:18;;;;;;;6.30;2.08;;;;;;;14.30;46.24;100983.34;5399013;25;94878;-87
2024/04/24 10:17:45;;;;;;;6.22;1.58;;;;;;;14.37;46.37;100979.00;5389315;26;94956;-86
2024/04/24 10:20:12;;;;;;;6.75;1.60;;;;;;;14.46;46.29;100979.84;5403251;25;94885;-88
2024/04/24 10:22:39;;;;;;;6.30;1.30;;;;;;;14.57;46.44;100971.06;5370814;25;97773;-87
2024/04/24 10:25:05;;;;;;;7.68;2.17;;;;;;;14.75;47.08;100964.94;5369960;26;94890;-86
2024/04/24 10:27:36;;;;;;;7.15;1.73;;;;;;;15.07;47.17;100966.59;5399407;25;95035;-87
2024/04/24 10:30:03;;;;;;;9.88;1.25;;;;;;;15.36;46.51;100948.03;5399246;25;98032;-87
2024/04/24 10:32:30;;;;;;;9.15;2.10;;;;;;;15.49;45.61;100955.00;5377911;25;98836;-87
2024/04/24 10:34:57;;;;;;;9.63;2.15;;;;;;;15.63;46.20;100954.88;5414610;25;94883;-87
2024/04/24 10:37:23;;;;;;;8.15;2.00;;;;;;;15.91;46.28;100947.72;5391030;25;94890;-86
2024/04/24 10:39:49;;;;;;;8.32;1.95;;;;;;;16.17;45.46;100944.00;5410119;25;97752;-87
2024/04/24 10:42:16;;;;;;;6.57;2.10;;;;;;;16.20;44.04;100943.09;5373158;25;98724;-87
2024/04/24 10:44:43;;;;;;;9.13;1.58;;;;;;;16.03;43.64;100941.47;5401713;25;94815;-88
2024/04/24 10:47:10;;;;;;;7.15;2.05;;;;;;;15.83;43.30;100946.00;5392736;25;94895;-89
2024/04/24 10:49:39;;;;;;;9.10;2.03;;;;;;;15.59;43.31;100945.28;5392050;25;98420;-88
2024/04/24 10:52:05;;;;;;;7.15;1.58;;;;;;;15.39;44.08;100937.53;5350355;25;95003;-87
2024/04/24 10:54:33;;;;;;;7.70;1.88;;;;;;;15.22;44.43;100934.97;5403584;25;94808;-86
2024/04/24 10:57:01;;;;;;;7.45;1.92;;;;;;;15.11;44.79;100944.66;5361760;26;95099;-86
2024/04/24 10:59:30;;;;;;;7.47;1.83;;;;;;;14.98;44.43;100952.59;5392432;25;98615;-88
2024/04/24 11:02:06;;;;;;;13.23;2.05;;;;;;;14.72;44.43;100952.69;5377691;25;98567;-89
2024/04/24 11:04:31;;;;;;;11.40;2.47;;;;;;;14.49;44.62;100957.94;5360378;26;94909;-89
2024/04/24 11:06:57;;;;;;;10.05;2.03;;;;;;;14.28;45.17;100958.88;5401393;25;94958;-88
2024/04/24 11:09:23;;;;;;;5.85;1.40;;;;;;;14.11;45.58;100951.00;5398232;25;95013;-89
2024/04/24 11:11:50;;;;;;;10.32;2.40;;;;;;;14.01;46.07;100949.25;5414429;25;95836;-88
2024/04/24 11:14:16;;;;;;;10.88;1.83;;;;;;;14.09;46.69;100939.63;5407885;25;94933;-88
2024/04/24 11:16:56;;;;;;;9.90;2.45;;;;;;;14.43;48.00;100932.59;5407032;25;94830;-89
2024/04/24 11:19:21;;;;;;;6.88;1.55;;;;;;;14.93;47.57;100927.25;5425373;25;98366;-89
2024/04/24 11:21:48;;;;;;;9.38;2.10;;;;;;;15.31;47.20;100927.06;5374024;26;98635;-87
2024/04/24 11:24:14;;;;;;;8.70;2.15;;;;;;;15.57;46.04;100931.28;5405116;25;94847;-90
2024/04/24 11:26:39;;;;;;;11.38;2.03;;;;;;;15.65;45.08;100926.84;5378890;26;94983;-89
2024/04/24 11:29:06;;;;;;;7.55;1.60;;;;;;;15.69;45.00;100915.41;5371528;26;98555;-89